Pagrindinis puslapis
METAR-TAF:

METAR-TAF

Oro uostai :

Vidsel, Švedija

platuma: 65-52N, ilguma: 020-08E, Aukštis: 180 m

Dabartinis oras

Ataskaita buvo paskelbta 42 minutes, ne 10:50 UTC
Vėjas 3 kt iš Pietvakarių, svyruoja nuo Pietų/Pietvakarių ir Vakarų
Temperatūra 6°C
Drėgmė 81%
Slėgis 996 hPa
Matomumas 10 km arba daugiau

METAR: ESPE 291050Z AUTO 23003KT 200V280 9999 FEW016/// BKN033/// OVC120/// 06/03 Q0996

Laikas: 12:32 (11:32 UTC)


TAF: trūkstamas

Orai ataskaitas ir orų prognozės (METAR, TAF).

turimą stotys yra geltonos ir raudonos taškus žemėlapyje.

Perkelti pele per norėdami pamatyti stoties vardą.

Tada spustelėkite, norėdami matyti oro stebėjimo ir prognozės.

Norėdami pakeisti žemėlapį: spustelėkite ant žalios mygtukų su juodo kryžiaus žemyn,; žalią mygtuką su brūkšneliu, jei norite nutolinti; arba žalių rodyklių gretimoms žemėlapius.


METAR-TAF: